sensor_id;sensor_type;location;lat;lon;timestamp;temperature;humidity
37158;DHT22;23050;51.776;22.638;2023-04-01T00:01:00;8.70;99.90
37158;DHT22;23050;51.776;22.638;2023-04-01T00:03:26;8.60;99.90
37158;DHT22;23050;51.776;22.638;2023-04-01T00:05:52;8.60;99.90
37158;DHT22;23050;51.776;22.638;2023-04-01T00:08:18;8.60;99.90
37158;DHT22;23050;51.776;22.638;2023-04-01T00:10:44;8.50;99.90
37158;DHT22;23050;51.776;22.638;2023-04-01T00:13:09;8.50;99.90
37158;DHT22;23050;51.776;22.638;2023-04-01T00:15:35;8.40;99.90
37158;DHT22;23050;51.776;22.638;2023-04-01T00:18:01;8.40;99.90
37158;DHT22;23050;51.776;22.638;2023-04-01T00:20:27;8.30;99.90
37158;DHT22;23050;51.776;22.638;2023-04-01T00:22:52;8.30;99.90
37158;DHT22;23050;51.776;22.638;2023-04-01T00:25:18;8.20;99.90
37158;DHT22;23050;51.776;22.638;2023-04-01T00:27:43;8.20;99.90
37158;DHT22;23050;51.776;22.638;2023-04-01T00:30:09;8.20;99.90
37158;DHT22;23050;51.776;22.638;2023-04-01T00:32:36;8.10;99.90
37158;DHT22;23050;51.776;22.638;2023-04-01T00:35:02;8.10;99.90
37158;DHT22;23050;51.776;22.638;2023-04-01T00:37:28;8.10;99.90
37158;DHT22;23050;51.776;22.638;2023-04-01T00:39:53;8.00;99.90
37158;DHT22;23050;51.776;22.638;2023-04-01T00:42:19;7.90;99.90
37158;DHT22;23050;51.776;22.638;2023-04-01T00:44:48;7.90;99.90
37158;DHT22;23050;51.776;22.638;2023-04-01T00:47:15;7.80;99.90
37158;DHT22;23050;51.776;22.638;2023-04-01T00:49:42;7.80;99.90
37158;DHT22;23050;51.776;22.638;2023-04-01T00:52:10;7.80;99.90
37158;DHT22;23050;51.776;22.638;2023-04-01T00:54:36;7.80;99.90
37158;DHT22;23050;51.776;22.638;2023-04-01T00:57:07;7.70;99.90
37158;DHT22;23050;51.776;22.638;2023-04-01T00:59:34;7.70;99.90
37158;DHT22;23050;51.776;22.638;2023-04-01T01:02:04;7.60;99.90
37158;DHT22;23050;51.776;22.638;2023-04-01T01:04:32;7.60;99.90
37158;DHT22;23050;51.776;22.638;2023-04-01T01:09:45;7.60;99.90
37158;DHT22;23050;51.776;22.638;2023-04-01T01:12:16;7.70;99.90
37158;DHT22;23050;51.776;22.638;2023-04-01T01:14:49;7.70;99.90
37158;DHT22;23050;51.776;22.638;2023-04-01T01:17:20;7.70;99.90
37158;DHT22;23050;51.776;22.638;2023-04-01T01:19:51;7.70;99.90
37158;DHT22;23050;51.776;22.638;2023-04-01T01:27:16;7.60;99.90
37158;DHT22;23050;51.776;22.638;2023-04-01T01:32:20;7.50;99.90
37158;DHT22;23050;51.776;22.638;2023-04-01T01:34:53;7.40;99.90
37158;DHT22;23050;51.776;22.638;2023-04-01T01:37:22;7.40;99.90
37158;DHT22;23050;51.776;22.638;2023-04-01T01:39:51;7.30;99.90
37158;DHT22;23050;51.776;22.638;2023-04-01T01:42:18;7.30;99.90
37158;DHT22;23050;51.776;22.638;2023-04-01T01:44:44;7.20;99.90
37158;DHT22;23050;51.776;22.638;2023-04-01T01:47:11;7.20;99.90
37158;DHT22;23050;51.776;22.638;2023-04-01T01:49:37;7.20;99.90
37158;DHT22;23050;51.776;22.638;2023-04-01T01:52:04;7.20;99.90
37158;DHT22;23050;51.776;22.638;2023-04-01T01:54:29;7.10;99.90
37158;DHT22;23050;51.776;22.638;2023-04-01T01:57:03;7.10;99.90
37158;DHT22;23050;51.776;22.638;2023-04-01T01:59:30;7.10;99.90
37158;DHT22;23050;51.776;22.638;2023-04-01T02:01:56;7.10;99.90
37158;DHT22;23050;51.776;22.638;2023-04-01T02:04:22;7.10;99.90
37158;DHT22;23050;51.776;22.638;2023-04-01T02:06:59;7.00;99.90
37158;DHT22;23050;51.776;22.638;2023-04-01T02:09:26;7.00;99.90
37158;DHT22;23050;51.776;22.638;2023-04-01T02:11:53;7.00;99.90
37158;DHT22;23050;51.776;22.638;2023-04-01T02:14:28;6.90;99.90
37158;DHT22;23050;51.776;22.638;2023-04-01T02:16:59;6.90;99.90
37158;DHT22;23050;51.776;22.638;2023-04-01T02:19:32;6.90;99.90
37158;DHT22;23050;51.776;22.638;2023-04-01T02:22:01;6.90;99.90
37158;DHT22;23050;51.776;22.638;2023-04-01T02:24:28;6.90;99.90
37158;DHT22;23050;51.776;22.638;2023-04-01T02:26:54;6.80;99.90
37158;DHT22;23050;51.776;22.638;2023-04-01T02:29:20;6.80;99.90
37158;DHT22;23050;51.776;22.638;2023-04-01T02:31:47;6.70;99.90
37158;DHT22;23050;51.776;22.638;2023-04-01T02:34:12;6.70;99.90
37158;DHT22;23050;51.776;22.638;2023-04-01T02:36:38;6.70;99.90
37158;DHT22;23050;51.776;22.638;2023-04-01T02:39:04;6.70;99.90
37158;DHT22;23050;51.776;22.638;2023-04-01T02:41:30;6.70;99.90
37158;DHT22;23050;51.776;22.638;2023-04-01T02:43:56;6.80;99.90
37158;DHT22;23050;51.776;22.638;2023-04-01T02:46:23;6.80;99.90
37158;DHT22;23050;51.776;22.638;2023-04-01T02:48:49;6.90;99.90
37158;DHT22;23050;51.776;22.638;2023-04-01T02:51:15;6.80;99.90
37158;DHT22;23050;51.776;22.638;2023-04-01T02:53:40;6.90;99.90
37158;DHT22;23050;51.776;22.638;2023-04-01T02:56:05;6.90;99.90
37158;DHT22;23050;51.776;22.638;2023-04-01T02:58:31;6.80;99.90
37158;DHT22;23050;51.776;22.638;2023-04-01T03:00:56;6.90;99.90
37158;DHT22;23050;51.776;22.638;2023-04-01T03:03:22;6.80;99.90
37158;DHT22;23050;51.776;22.638;2023-04-01T03:05:47;6.80;99.90
37158;DHT22;23050;51.776;22.638;2023-04-01T03:08:13;6.70;99.90
37158;DHT22;23050;51.776;22.638;2023-04-01T03:10:38;6.70;99.90
37158;DHT22;23050;51.776;22.638;2023-04-01T03:13:04;6.70;99.90
37158;DHT22;23050;51.776;22.638;2023-04-01T03:15:29;6.70;99.90
37158;DHT22;23050;51.776;22.638;2023-04-01T03:17:55;6.60;99.90
37158;DHT22;23050;51.776;22.638;2023-04-01T03:20:20;6.60;99.90
37158;DHT22;23050;51.776;22.638;2023-04-01T03:22:46;6.50;99.90
37158;DHT22;23050;51.776;22.638;2023-04-01T03:25:12;6.50;99.90
37158;DHT22;23050;51.776;22.638;2023-04-01T03:27:37;6.50;99.90
37158;DHT22;23050;51.776;22.638;2023-04-01T03:30:03;6.60;99.90
37158;DHT22;23050;51.776;22.638;2023-04-01T03:32:29;6.50;99.90
37158;DHT22;23050;51.776;22.638;2023-04-01T03:34:54;6.60;99.90
37158;DHT22;23050;51.776;22.638;2023-04-01T03:37:20;6.60;99.90
37158;DHT22;23050;51.776;22.638;2023-04-01T03:39:45;6.60;99.90
37158;DHT22;23050;51.776;22.638;2023-04-01T03:42:11;6.60;99.90
37158;DHT22;23050;51.776;22.638;2023-04-01T03:44:37;6.60;99.90
37158;DHT22;23050;51.776;22.638;2023-04-01T03:47:02;6.70;99.90
37158;DHT22;23050;51.776;22.638;2023-04-01T03:49:28;6.70;99.90
37158;DHT22;23050;51.776;22.638;2023-04-01T03:51:53;6.80;99.90
37158;DHT22;23050;51.776;22.638;2023-04-01T03:54:19;6.80;99.90
37158;DHT22;23050;51.776;22.638;2023-04-01T03:56:45;6.90;99.90
37158;DHT22;23050;51.776;22.638;2023-04-01T03:59:11;6.90;99.90
37158;DHT22;23050;51.776;22.638;2023-04-01T04:01:37;6.80;99.90
37158;DHT22;23050;51.776;22.638;2023-04-01T04:04:02;6.90;99.90
37158;DHT22;23050;51.776;22.638;2023-04-01T04:06:28;6.90;99.90
37158;DHT22;23050;51.776;22.638;2023-04-01T04:08:53;6.90;99.90
37158;DHT22;23050;51.776;22.638;2023-04-01T04:11:19;6.90;99.90
37158;DHT22;23050;51.776;22.638;2023-04-01T04:13:45;7.00;99.90
37158;DHT22;23050;51.776;22.638;2023-04-01T04:16:14;7.00;99.90
37158;DHT22;23050;51.776;22.638;2023-04-01T04:18:39;7.00;99.90
37158;DHT22;23050;51.776;22.638;2023-04-01T04:21:05;7.00;99.90
37158;DHT22;23050;51.776;22.638;2023-04-01T04:23:30;7.10;99.90
37158;DHT22;23050;51.776;22.638;2023-04-01T04:26:03;7.10;99.90
37158;DHT22;23050;51.776;22.638;2023-04-01T04:28:29;7.10;99.90
37158;DHT22;23050;51.776;22.638;2023-04-01T04:30:55;7.10;99.90
37158;DHT22;23050;51.776;22.638;2023-04-01T04:33:21;7.10;99.90
37158;DHT22;23050;51.776;22.638;2023-04-01T04:35:46;7.10;99.90
37158;DHT22;23050;51.776;22.638;2023-04-01T04:38:12;7.10;99.90
37158;DHT22;23050;51.776;22.638;2023-04-01T04:40:38;7.10;99.90
37158;DHT22;23050;51.776;22.638;2023-04-01T04:43:03;7.10;99.90
37158;DHT22;23050;51.776;22.638;2023-04-01T04:45:29;7.10;99.90
37158;DHT22;23050;51.776;22.638;2023-04-01T04:47:55;7.10;99.90
37158;DHT22;23050;51.776;22.638;2023-04-01T04:50:20;7.10;99.90
37158;DHT22;23050;51.776;22.638;2023-04-01T04:52:46;7.10;99.90
37158;DHT22;23050;51.776;22.638;2023-04-01T04:55:11;7.10;99.90
37158;DHT22;23050;51.776;22.638;2023-04-01T04:57:37;7.20;99.90
37158;DHT22;23050;51.776;22.638;2023-04-01T05:00:02;7.20;99.90
37158;DHT22;23050;51.776;22.638;2023-04-01T05:02:28;7.30;99.90
37158;DHT22;23050;51.776;22.638;2023-04-01T05:04:54;7.30;99.90
37158;DHT22;23050;51.776;22.638;2023-04-01T05:07:19;7.40;99.90
37158;DHT22;23050;51.776;22.638;2023-04-01T05:09:45;7.40;99.90
37158;DHT22;23050;51.776;22.638;2023-04-01T05:12:10;7.40;99.90
37158;DHT22;23050;51.776;22.638;2023-04-01T05:14:38;7.50;99.90
37158;DHT22;23050;51.776;22.638;2023-04-01T05:17:03;7.60;99.90
37158;DHT22;23050;51.776;22.638;2023-04-01T05:19:29;7.60;99.90
37158;DHT22;23050;51.776;22.638;2023-04-01T05:21:55;7.60;99.90
37158;DHT22;23050;51.776;22.638;2023-04-01T05:24:20;7.70;99.90
37158;DHT22;23050;51.776;22.638;2023-04-01T05:26:45;7.70;99.90
37158;DHT22;23050;51.776;22.638;2023-04-01T05:29:11;7.70;99.90
37158;DHT22;23050;51.776;22.638;2023-04-01T05:31:36;7.80;99.90
37158;DHT22;23050;51.776;22.638;2023-04-01T05:34:02;7.80;99.90
37158;DHT22;23050;51.776;22.638;2023-04-01T05:36:27;7.80;99.90
37158;DHT22;23050;51.776;22.638;2023-04-01T05:38:56;7.90;99.90
37158;DHT22;23050;51.776;22.638;2023-04-01T05:41:21;7.90;99.90
37158;DHT22;23050;51.776;22.638;2023-04-01T05:43:47;7.90;99.90
37158;DHT22;23050;51.776;22.638;2023-04-01T05:46:12;8.00;99.90
37158;DHT22;23050;51.776;22.638;2023-04-01T05:48:38;8.00;99.90
37158;DHT22;23050;51.776;22.638;2023-04-01T05:51:04;8.00;99.90
37158;DHT22;23050;51.776;22.638;2023-04-01T05:53:29;8.00;99.90
37158;DHT22;23050;51.776;22.638;2023-04-01T05:55:55;8.00;99.90
37158;DHT22;23050;51.776;22.638;2023-04-01T05:58:20;8.10;99.90
37158;DHT22;23050;51.776;22.638;2023-04-01T06:00:46;8.10;99.90
37158;DHT22;23050;51.776;22.638;2023-04-01T06:03:11;8.20;99.90
37158;DHT22;23050;51.776;22.638;2023-04-01T06:05:41;8.20;99.90
37158;DHT22;23050;51.776;22.638;2023-04-01T06:08:16;8.20;99.90
37158;DHT22;23050;51.776;22.638;2023-04-01T06:10:49;8.30;99.90
37158;DHT22;23050;51.776;22.638;2023-04-01T06:13:25;8.30;99.90
37158;DHT22;23050;51.776;22.638;2023-04-01T06:18:46;8.50;99.90
37158;DHT22;23050;51.776;22.638;2023-04-01T06:27:00;8.90;99.90
37158;DHT22;23050;51.776;22.638;2023-04-01T06:29:31;9.00;99.90
37158;DHT22;23050;51.776;22.638;2023-04-01T06:47:20;9.70;99.90
37158;DHT22;23050;51.776;22.638;2023-04-01T06:50:04;9.70;99.90
37158;DHT22;23050;51.776;22.638;2023-04-01T06:57:42;10.30;99.90
37158;DHT22;23050;51.776;22.638;2023-04-01T07:00:19;10.50;99.90
37158;DHT22;23050;51.776;22.638;2023-04-01T07:02:48;10.60;99.90
37158;DHT22;23050;51.776;22.638;2023-04-01T07:05:18;10.60;99.90
37158;DHT22;23050;51.776;22.638;2023-04-01T07:07:46;10.60;99.90
37158;DHT22;23050;51.776;22.638;2023-04-01T07:10:17;10.40;99.90
37158;DHT22;23050;51.776;22.638;2023-04-01T07:12:51;10.40;99.90
37158;DHT22;23050;51.776;22.638;2023-04-01T07:15:25;10.50;99.90
37158;DHT22;23050;51.776;22.638;2023-04-01T07:17:55;10.50;99.90
37158;DHT22;23050;51.776;22.638;2023-04-01T07:22:51;10.70;99.90
37158;DHT22;23050;51.776;22.638;2023-04-01T07:25:18;10.70;99.90
37158;DHT22;23050;51.776;22.638;2023-04-01T07:27:45;11.20;99.90
37158;DHT22;23050;51.776;22.638;2023-04-01T07:30:15;11.80;99.90
37158;DHT22;23050;51.776;22.638;2023-04-01T07:32:49;12.10;99.90
37158;DHT22;23050;51.776;22.638;2023-04-01T07:45:39;12.70;99.90
37158;DHT22;23050;51.776;22.638;2023-04-01T07:58:11;12.70;99.90
37158;DHT22;23050;51.776;22.638;2023-04-01T08:05:53;14.80;99.90
37158;DHT22;23050;51.776;22.638;2023-04-01T08:08:26;16.00;93.50
37158;DHT22;23050;51.776;22.638;2023-04-01T08:10:55;16.40;58.60
37158;DHT22;23050;51.776;22.638;2023-04-01T08:23:44;17.90;5.90
37158;DHT22;23050;51.776;22.638;2023-04-01T08:26:32;18.40;1.00
37158;DHT22;23050;51.776;22.638;2023-04-01T08:29:10;18.60;1.00
37158;DHT22;23050;51.776;22.638;2023-04-01T08:31:48;18.50;1.00
37158;DHT22;23050;51.776;22.638;2023-04-01T08:34:17;18.50;1.00
37158;DHT22;23050;51.776;22.638;2023-04-01T08:36:45;18.90;1.00
37158;DHT22;23050;51.776;22.638;2023-04-01T08:39:19;18.30;1.00
37158;DHT22;23050;51.776;22.638;2023-04-01T08:49:57;15.00;1.00
37158;DHT22;23050;51.776;22.638;2023-04-01T09:05:38;15.40;11.00
37158;DHT22;23050;51.776;22.638;2023-04-01T09:10:49;15.70;1.00
37158;DHT22;23050;51.776;22.638;2023-04-01T09:18:47;15.50;1.00
37158;DHT22;23050;51.776;22.638;2023-04-01T09:26:17;15.70;1.00
37158;DHT22;23050;51.776;22.638;2023-04-01T09:31:32;17.40;1.00
37158;DHT22;23050;51.776;22.638;2023-04-01T09:36:38;18.80;1.00
37158;DHT22;23050;51.776;22.638;2023-04-01T09:41:44;19.00;1.00
37158;DHT22;23050;51.776;22.638;2023-04-01T09:44:15;17.60;1.00
37158;DHT22;23050;51.776;22.638;2023-04-01T09:47:00;16.40;1.00
37158;DHT22;23050;51.776;22.638;2023-04-01T09:52:13;15.60;1.00
37158;DHT22;23050;51.776;22.638;2023-04-01T09:54:49;16.60;1.00
37158;DHT22;23050;51.776;22.638;2023-04-01T09:57:25;18.00;1.00
37158;DHT22;23050;51.776;22.638;2023-04-01T10:02:47;19.20;1.00
37158;DHT22;23050;51.776;22.638;2023-04-01T10:12:51;18.60;1.00
37158;DHT22;23050;51.776;22.638;2023-04-01T10:20:54;16.30;1.00
37158;DHT22;23050;51.776;22.638;2023-04-01T10:38:51;14.00;44.30
37158;DHT22;23050;51.776;22.638;2023-04-01T10:49:04;13.60;85.20
37158;DHT22;23050;51.776;22.638;2023-04-01T10:54:40;13.30;89.80
37158;DHT22;23050;51.776;22.638;2023-04-01T11:10:20;13.10;96.60
37158;DHT22;23050;51.776;22.638;2023-04-01T11:15:41;13.10;95.80
37158;DHT22;23050;51.776;22.638;2023-04-01T11:28:24;13.20;97.40
37158;DHT22;23050;51.776;22.638;2023-04-01T11:33:29;13.30;97.50
37158;DHT22;23050;51.776;22.638;2023-04-01T11:36:44;13.50;96.80
37158;DHT22;23050;51.776;22.638;2023-04-01T11:46:47;14.10;82.30
37158;DHT22;23050;51.776;22.638;2023-04-01T12:10:24;14.20;80.80
37158;DHT22;23050;51.776;22.638;2023-04-01T12:15:35;14.10;90.00
37158;DHT22;23050;51.776;22.638;2023-04-01T12:18:15;14.30;85.60
37158;DHT22;23050;51.776;22.638;2023-04-01T12:20:59;14.40;79.90
37158;DHT22;23050;51.776;22.638;2023-04-01T12:28:59;15.30;31.60
37158;DHT22;23050;51.776;22.638;2023-04-01T12:31:47;15.70;23.80
37158;DHT22;23050;51.776;22.638;2023-04-01T12:41:54;15.90;1.00
37158;DHT22;23050;51.776;22.638;2023-04-01T12:52:10;15.80;1.00
37158;DHT22;23050;51.776;22.638;2023-04-01T12:54:48;15.50;1.00
37158;DHT22;23050;51.776;22.638;2023-04-01T13:00:15;14.60;4.80
37158;DHT22;23050;51.776;22.638;2023-04-01T13:15:24;13.10;99.90
37158;DHT22;23050;51.776;22.638;2023-04-01T13:23:10;13.20;99.90
37158;DHT22;23050;51.776;22.638;2023-04-01T13:28:14;13.20;99.90
37158;DHT22;23050;51.776;22.638;2023-04-01T13:30:44;13.20;99.90
37158;DHT22;23050;51.776;22.638;2023-04-01T13:33:29;13.20;99.90
37158;DHT22;23050;51.776;22.638;2023-04-01T13:41:18;13.40;97.60
37158;DHT22;23050;51.776;22.638;2023-04-01T13:43:48;13.50;96.70
37158;DHT22;23050;51.776;22.638;2023-04-01T13:46:36;13.70;98.30
37158;DHT22;23050;51.776;22.638;2023-04-01T13:54:49;15.00;52.30
37158;DHT22;23050;51.776;22.638;2023-04-01T13:57:22;15.10;42.90
37158;DHT22;23050;51.776;22.638;2023-04-01T14:02:35;15.40;15.10
37158;DHT22;23050;51.776;22.638;2023-04-01T14:07:50;15.10;1.00
37158;DHT22;23050;51.776;22.638;2023-04-01T14:13:17;14.70;21.50
37158;DHT22;23050;51.776;22.638;2023-04-01T14:15:58;14.50;32.50
37158;DHT22;23050;51.776;22.638;2023-04-01T14:18:42;14.20;43.10
37158;DHT22;23050;51.776;22.638;2023-04-01T14:36:46;13.70;75.10
37158;DHT22;23050;51.776;22.638;2023-04-01T14:44:33;13.80;84.70
37158;DHT22;23050;51.776;22.638;2023-04-01T14:49:48;13.70;95.70
37158;DHT22;23050;51.776;22.638;2023-04-01T14:54:42;13.40;98.80
37158;DHT22;23050;51.776;22.638;2023-04-01T14:57:11;13.30;99.90
37158;DHT22;23050;51.776;22.638;2023-04-01T14:59:41;13.30;99.90
37158;DHT22;23050;51.776;22.638;2023-04-01T15:04:56;13.20;99.90
37158;DHT22;23050;51.776;22.638;2023-04-01T15:09:57;13.20;99.90
37158;DHT22;23050;51.776;22.638;2023-04-01T15:12:35;13.10;99.90
37158;DHT22;23050;51.776;22.638;2023-04-01T15:25:34;12.90;99.90
37158;DHT22;23050;51.776;22.638;2023-04-01T15:33:23;12.60;99.90
37158;DHT22;23050;51.776;22.638;2023-04-01T15:36:03;12.50;99.90
37158;DHT22;23050;51.776;22.638;2023-04-01T15:38:41;12.40;99.90
37158;DHT22;23050;51.776;22.638;2023-04-01T15:41:24;12.40;99.90
37158;DHT22;23050;51.776;22.638;2023-04-01T15:43:51;12.20;99.90
37158;DHT22;23050;51.776;22.638;2023-04-01T15:46:20;12.20;99.90
37158;DHT22;23050;51.776;22.638;2023-04-01T15:54:26;12.00;99.90
37158;DHT22;23050;51.776;22.638;2023-04-01T16:02:19;11.60;99.90
37158;DHT22;23050;51.776;22.638;2023-04-01T16:04:58;11.30;99.90
37158;DHT22;23050;51.776;22.638;2023-04-01T16:07:41;11.10;99.90
37158;DHT22;23050;51.776;22.638;2023-04-01T16:15:44;10.70;99.90
37158;DHT22;23050;51.776;22.638;2023-04-01T16:18:24;10.60;99.90
37158;DHT22;23050;51.776;22.638;2023-04-01T16:21:00;10.60;99.90
37158;DHT22;23050;51.776;22.638;2023-04-01T16:23:37;10.40;99.90
37158;DHT22;23050;51.776;22.638;2023-04-01T16:29:02;10.40;99.90
37158;DHT22;23050;51.776;22.638;2023-04-01T16:34:16;10.40;99.90
37158;DHT22;23050;51.776;22.638;2023-04-01T16:39:22;10.40;99.90
37158;DHT22;23050;51.776;22.638;2023-04-01T16:44:31;10.20;99.90
37158;DHT22;23050;51.776;22.638;2023-04-01T16:47:10;10.20;99.90
37158;DHT22;23050;51.776;22.638;2023-04-01T16:49:56;10.20;99.90
37158;DHT22;23050;51.776;22.638;2023-04-01T16:52:34;10.20;99.90
37158;DHT22;23050;51.776;22.638;2023-04-01T16:55:02;10.20;99.90
37158;DHT22;23050;51.776;22.638;2023-04-01T17:02:36;10.10;99.90
37158;DHT22;23050;51.776;22.638;2023-04-01T17:05:04;10.00;99.90
37158;DHT22;23050;51.776;22.638;2023-04-01T17:15:35;9.80;99.90
37158;DHT22;23050;51.776;22.638;2023-04-01T17:18:11;9.80;99.90
37158;DHT22;23050;51.776;22.638;2023-04-01T17:20:41;9.70;99.90
37158;DHT22;23050;51.776;22.638;2023-04-01T17:23:12;9.70;99.90
37158;DHT22;23050;51.776;22.638;2023-04-01T17:28:18;9.60;99.90
37158;DHT22;23050;51.776;22.638;2023-04-01T17:30:52;9.50;99.90
37158;DHT22;23050;51.776;22.638;2023-04-01T17:38:54;9.50;99.90
37158;DHT22;23050;51.776;22.638;2023-04-01T17:44:02;9.50;99.90
37158;DHT22;23050;51.776;22.638;2023-04-01T17:51:40;9.40;99.90
37158;DHT22;23050;51.776;22.638;2023-04-01T17:56:55;9.30;99.90
37158;DHT22;23050;51.776;22.638;2023-04-01T18:04:40;9.30;99.90
37158;DHT22;23050;51.776;22.638;2023-04-01T18:09:48;9.30;99.90
37158;DHT22;23050;51.776;22.638;2023-04-01T18:14:45;9.20;99.90
37158;DHT22;23050;51.776;22.638;2023-04-01T18:25:21;9.10;99.90
37158;DHT22;23050;51.776;22.638;2023-04-01T18:28:08;9.10;99.90
37158;DHT22;23050;51.776;22.638;2023-04-01T18:30:34;9.10;99.90
37158;DHT22;23050;51.776;22.638;2023-04-01T18:33:16;9.10;99.90
37158;DHT22;23050;51.776;22.638;2023-04-01T18:38:12;9.10;99.90
37158;DHT22;23050;51.776;22.638;2023-04-01T18:46:05;9.10;99.90
37158;DHT22;23050;51.776;22.638;2023-04-01T18:48:51;9.10;99.90
37158;DHT22;23050;51.776;22.638;2023-04-01T18:51:20;9.00;99.90
37158;DHT22;23050;51.776;22.638;2023-04-01T18:53:53;9.00;99.90
37158;DHT22;23050;51.776;22.638;2023-04-01T18:56:28;9.00;99.90
37158;DHT22;23050;51.776;22.638;2023-04-01T18:59:12;9.00;99.90
37158;DHT22;23050;51.776;22.638;2023-04-01T19:04:16;8.90;99.90
37158;DHT22;23050;51.776;22.638;2023-04-01T19:06:54;8.90;99.90
37158;DHT22;23050;51.776;22.638;2023-04-01T19:14:24;8.90;99.90
37158;DHT22;23050;51.776;22.638;2023-04-01T19:17:00;8.80;99.90
37158;DHT22;23050;51.776;22.638;2023-04-01T19:27:18;8.90;99.90
37158;DHT22;23050;51.776;22.638;2023-04-01T19:37:57;8.90;99.90
37158;DHT22;23050;51.776;22.638;2023-04-01T19:40:36;8.90;99.90
37158;DHT22;23050;51.776;22.638;2023-04-01T19:50:36;9.00;99.90
37158;DHT22;23050;51.776;22.638;2023-04-01T19:53:48;9.00;99.90
37158;DHT22;23050;51.776;22.638;2023-04-01T19:56:12;9.00;99.90
37158;DHT22;23050;51.776;22.638;2023-04-01T20:01:10;9.10;99.90
37158;DHT22;23050;51.776;22.638;2023-04-01T20:03:48;9.10;99.90
37158;DHT22;23050;51.776;22.638;2023-04-01T20:06:20;9.10;99.90
37158;DHT22;23050;51.776;22.638;2023-04-01T20:14:17;9.20;99.90
37158;DHT22;23050;51.776;22.638;2023-04-01T20:19:24;9.20;99.90
37158;DHT22;23050;51.776;22.638;2023-04-01T20:21:51;9.20;99.90
37158;DHT22;23050;51.776;22.638;2023-04-01T20:24:17;9.20;99.90
37158;DHT22;23050;51.776;22.638;2023-04-01T20:26:51;9.20;99.90
37158;DHT22;23050;51.776;22.638;2023-04-01T20:29:27;9.20;99.90
37158;DHT22;23050;51.776;22.638;2023-04-01T20:32:05;9.10;99.90
37158;DHT22;23050;51.776;22.638;2023-04-01T20:51:13;8.90;99.90
37158;DHT22;23050;51.776;22.638;2023-04-01T21:03:45;8.70;99.90
37158;DHT22;23050;51.776;22.638;2023-04-01T21:08:44;8.60;99.90
37158;DHT22;23050;51.776;22.638;2023-04-01T21:11:18;8.50;99.90
37158;DHT22;23050;51.776;22.638;2023-04-01T21:13:49;8.50;99.90
37158;DHT22;23050;51.776;22.638;2023-04-01T21:19:12;8.30;99.90
37158;DHT22;23050;51.776;22.638;2023-04-01T21:29:09;8.20;99.90
37158;DHT22;23050;51.776;22.638;2023-04-01T21:31:45;8.10;99.90
37158;DHT22;23050;51.776;22.638;2023-04-01T21:34:28;8.10;99.90
37158;DHT22;23050;51.776;22.638;2023-04-01T21:53:05;8.00;99.90
37158;DHT22;23050;51.776;22.638;2023-04-01T22:03:53;8.00;99.90
37158;DHT22;23050;51.776;22.638;2023-04-01T22:11:37;7.90;99.90
37158;DHT22;23050;51.776;22.638;2023-04-01T22:16:56;7.90;99.90
37158;DHT22;23050;51.776;22.638;2023-04-01T22:19:27;7.90;99.90
37158;DHT22;23050;51.776;22.638;2023-04-01T22:27:58;7.90;99.90
37158;DHT22;23050;51.776;22.638;2023-04-01T22:32:21;7.80;99.90
37158;DHT22;23050;51.776;22.638;2023-04-01T22:34:53;7.80;99.90
37158;DHT22;23050;51.776;22.638;2023-04-01T22:39:59;7.80;99.90
37158;DHT22;23050;51.776;22.638;2023-04-01T22:47:35;7.70;99.90
37158;DHT22;23050;51.776;22.638;2023-04-01T22:50:15;7.70;99.90
37158;DHT22;23050;51.776;22.638;2023-04-01T22:52:44;7.70;99.90
37158;DHT22;23050;51.776;22.638;2023-04-01T22:55:13;7.70;99.90
37158;DHT22;23050;51.776;22.638;2023-04-01T23:00:30;7.60;99.90
37158;DHT22;23050;51.776;22.638;2023-04-01T23:03:02;7.60;99.90
37158;DHT22;23050;51.776;22.638;2023-04-01T23:05:28;7.60;99.90
37158;DHT22;23050;51.776;22.638;2023-04-01T23:07:56;7.60;99.90
37158;DHT22;23050;51.776;22.638;2023-04-01T23:10:30;7.50;99.90
37158;DHT22;23050;51.776;22.638;2023-04-01T23:13:04;7.50;99.90
37158;DHT22;23050;51.776;22.638;2023-04-01T23:15:31;7.40;99.90
37158;DHT22;23050;51.776;22.638;2023-04-01T23:28:27;7.30;99.90
37158;DHT22;23050;51.776;22.638;2023-04-01T23:30:56;7.30;99.90
37158;DHT22;23050;51.776;22.638;2023-04-01T23:33:22;7.30;99.90
37158;DHT22;23050;51.776;22.638;2023-04-01T23:35:56;7.20;99.90
37158;DHT22;23050;51.776;22.638;2023-04-01T23:38:30;7.30;99.90
37158;DHT22;23050;51.776;22.638;2023-04-01T23:40:56;7.30;99.90
37158;DHT22;23050;51.776;22.638;2023-04-01T23:43:26;7.20;99.90
37158;DHT22;23050;51.776;22.638;2023-04-01T23:45:52;7.20;99.90
37158;DHT22;23050;51.776;22.638;2023-04-01T23:48:18;7.30;99.90
37158;DHT22;23050;51.776;22.638;2023-04-01T23:50:46;7.20;99.90
37158;DHT22;23050;51.776;22.638;2023-04-01T23:53:22;7.20;99.90
37158;DHT22;23050;51.776;22.638;2023-04-01T23:55:49;7.20;99.90
37158;DHT22;23050;51.776;22.638;2023-04-01T23:58:21;7.20;99.90
